Latest Weather Observations for Tatura

IDV60801

Issued at 11:31 am EST Tuesday 26 May 2015 (issued every 30 minutes, with the page automatically refreshed every 10 minutes)

About weather observations | Map of weather stations | Latest weather observations for VIC | Other Formats
Station Details ID: 081049 Name: TATURA INST SUSTAINABLE AG Lat: -36.44 Lon: 145.27 Height: 114.0 m
Data from the previous 72 hours. | See also: Recent months at Tatura
Date/Time
EST
Temp
°C
App
Temp
°C
Dew
Point
Rel
Hum
%
Delta-T
°C
Wind Press
QNH
hPa
Press
MSL
hPa
Rain
since 9 am
mm
Dir
 
Spd
km/h
Gust
km/h
Spd
kts
Gust
kts
26/11:30am 13.3 10.5 6.9 65 3.1 - 11 15 6 8 - - 0.0
26/11:00am 12.3 9.8 6.4 67 2.8 - 9 13 5 7 - - 0.0
26/10:30am 10.2 7.7 6.5 78 1.7 - 9 13 5 7 - - 0.0
26/10:00am 8.3 6.0 5.8 84 1.1 - 7 9 4 5 - - 0.0
26/09:30am 7.5 5.2 5.6 88 0.9 - 7 13 4 7 - - 0.0
26/09:00am 6.0 3.5 4.6 91 0.6 - 7 11 4 6 - - 0.0
26/08:30am 4.6 2.1 4.5 99 0.0 - 7 13 4 7 - - 0.0
26/08:00am 2.9 -0.3 2.8 99 0.0 - 9 19 5 10 - - 0.0
26/07:30am 2.3 0.7 2.2 99 0.0 CALM 0 6 0 3 - - 0.0
26/07:00am 1.7 -1.2 1.6 99 0.0 - 6 7 3 4 - - 0.0
26/06:30am 1.4 -1.7 1.1 98 0.1 - 7 9 4 5 - - 0.0
26/06:00am 1.5 -1.6 1.2 98 0.1 - 7 9 4 5 - - 0.0
26/05:30am 2.0 -1.0 1.7 98 0.1 - 7 9 4 5 - - 0.0
26/05:00am 2.2 -0.8 1.9 98 0.1 - 7 9 4 5 - - 0.0
26/04:30am 2.4 -1.0 2.1 98 0.1 - 9 11 5 6 - - 0.0
26/04:00am 2.8 -0.5 2.5 98 0.1 - 9 11 5 6 - - 0.0
26/03:30am 2.6 -0.7 2.3 98 0.1 - 9 11 5 6 - - 0.0
26/03:00am 2.2 -1.2 1.9 98 0.1 - 9 11 5 6 - - 0.0
26/02:30am 2.4 -0.6 2.1 98 0.1 - 7 9 4 5 - - 0.0
26/02:00am 2.2 -0.8 1.8 97 0.2 - 7 9 4 5 - - 0.0
26/01:30am 2.4 -0.4 2.0 97 0.2 - 6 7 3 4 - - 0.0
26/01:00am 2.2 -0.9 1.5 95 0.3 - 7 9 4 5 - - 0.0
26/12:30am 3.9 1.1 3.3 96 0.2 - 7 9 4 5 - - 0.0
26/12:00am 4.1 0.9 3.2 94 0.4 - 9 9 5 5 - - 0.0
 
Date/Time
EST
Temp
°C
App
Temp
°C
Dew
Point
Rel
Hum
%
Delta-T
°C
Wind Press
QNH
hPa
Press
MSL
hPa
Rain
since 9 am
mm
Dir
 
Spd
km/h
Gust
km/h
Spd
kts
Gust
kts
25/11:30pm 4.8 2.1 3.8 93 0.4 - 7 9 4 5 - - 0.0
25/11:00pm 5.1 2.0 3.8 91 0.5 - 9 9 5 5 - - 0.0
25/10:30pm 5.7 2.7 4.3 91 0.6 - 9 11 5 6 - - 0.0
25/10:00pm 5.7 3.4 4.7 93 0.4 - 6 9 3 5 - - 0.0
25/09:30pm 6.1 3.6 3.8 85 1.0 - 6 7 3 4 - - 0.0
25/09:00pm 6.9 4.4 4.9 87 0.9 - 7 9 4 5 - - 0.0
25/08:30pm 8.0 5.6 5.1 82 1.3 - 7 9 4 5 - - 0.0
25/08:00pm 8.8 6.6 5.5 80 1.5 - 6 9 3 5 - - 0.0
25/07:30pm 9.4 7.1 5.6 77 1.7 - 7 11 4 6 - - 0.0
25/07:00pm 9.3 7.2 5.9 79 1.6 - 6 9 3 5 - - 0.0
25/06:30pm 9.7 7.6 5.9 77 1.8 - 6 7 3 4 - - 0.0
25/06:00pm 10.1 7.8 5.7 74 2.0 - 7 9 4 5 - - 0.0
25/05:30pm 11.0 8.7 5.7 70 2.5 - 7 9 4 5 - - 0.0
25/05:00pm 12.1 9.8 5.7 65 3.0 - 7 11 4 6 - - 0.0
25/04:30pm 13.7 10.3 5.8 59 3.8 - 13 17 7 9 - - 0.0
25/04:00pm 14.0 11.0 5.9 58 3.9 - 11 17 6 9 - - 0.0
25/03:30pm 14.6 11.2 5.9 56 4.2 - 13 19 7 10 - - 0.0
25/03:00pm 14.4 11.8 6.0 57 4.0 - 9 13 5 7 - - 0.0
25/02:30pm 14.3 11.7 5.9 57 4.0 - 9 15 5 8 - - 0.0
25/02:00pm 14.3 11.8 6.6 60 3.7 - 9 13 5 7 - - 0.0
25/01:30pm 13.6 11.5 6.5 62 3.4 - 7 9 4 5 - - 0.0
25/01:00pm 13.3 11.3 6.4 63 3.3 - 6 9 3 5 - - 0.0
25/12:30pm 13.3 10.8 6.6 64 3.2 - 9 13 5 7 - - 0.0
25/12:00pm 12.7 10.6 6.7 67 2.9 - 7 13 4 7 - - 0.0
25/11:30am 11.7 9.1 6.0 68 2.7 - 9 13 5 7 - - 0.0
25/11:00am 10.6 8.1 6.4 75 2.0 - 9 13 5 7 - - 0.0
25/10:30am 9.7 7.4 5.9 77 1.8 - 7 9 4 5 - - 0.0
25/10:00am 8.5 5.8 5.6 82 1.3 - 9 11 5 6 - - 0.0
25/09:30am 7.2 4.9 5.5 89 0.8 - 7 9 4 5 - - 0.0
25/09:00am 6.1 3.6 4.9 92 0.5 - 7 11 4 6 - - 0.0
25/08:30am 5.6 3.3 4.7 94 0.4 - 6 9 3 5 - - 0.0
25/08:00am 5.0 2.9 4.0 93 0.4 - 4 7 2 4 - - 0.0
25/07:30am 4.7 3.3 3.8 94 0.4 CALM 0 0 0 0 - - 0.0
25/07:00am 4.8 2.7 3.9 94 0.4 - 4 7 2 4 - - 0.0
25/06:30am 4.6 2.9 4.0 96 0.3 - 2 7 1 4 - - 0.0
25/06:00am 4.0 2.6 3.3 95 0.3 CALM 0 0 0 0 - - 0.0
25/05:30am 4.4 3.0 3.7 95 0.3 CALM 0 0 0 0 - - 0.0
25/05:00am 5.4 4.1 4.1 91 0.6 CALM 0 0 0 0 - - 0.0
25/04:30am 6.3 3.4 4.8 90 0.7 - 9 13 5 7 - - 0.0
25/04:00am 6.2 3.3 4.7 90 0.7 - 9 11 5 6 - - 0.0
25/03:30am 5.5 2.9 4.3 92 0.5 - 7 9 4 5 - - 0.0
25/03:00am 5.5 2.9 4.3 92 0.5 - 7 11 4 6 - - 0.0
25/02:30am 5.2 2.6 4.3 94 0.4 - 7 9 4 5 - - 0.0
25/02:00am 5.6 2.7 4.4 92 0.5 - 9 11 5 6 - - 0.0
25/01:30am 5.3 2.7 4.4 94 0.4 - 7 11 4 6 - - 0.0
25/01:00am 4.9 1.9 4.2 95 0.3 - 9 9 5 5 - - 0.0
25/12:30am 3.6 1.8 3.2 97 0.2 - 2 9 1 5 - - 0.0
25/12:00am 3.6 1.0 3.2 97 0.2 - 6 7 3 4 - - 0.0
 
Date/Time
EST
Temp
°C
App
Temp
°C
Dew
Point
Rel
Hum
%
Delta-T
°C
Wind Press
QNH
hPa
Press
MSL
hPa
Rain
since 9 am
mm
Dir
 
Spd
km/h
Gust
km/h
Spd
kts
Gust
kts
24/11:30pm 3.7 0.9 3.3 97 0.2 - 7 9 4 5 - - 0.0
24/11:00pm 3.7 2.3 3.3 97 0.2 CALM 0 6 0 3 - - 0.0
24/10:30pm 3.8 2.0 3.4 97 0.2 - 2 6 1 3 - - 0.0
24/10:00pm 3.8 2.0 3.5 98 0.1 - 2 7 1 4 - - 0.0
24/09:30pm 2.9 1.3 2.2 95 0.3 CALM 0 0 0 0 - - 0.0
24/09:00pm 3.6 0.8 2.9 95 0.3 - 7 9 4 5 - - 0.0
24/08:30pm 3.5 1.9 2.6 94 0.4 CALM 0 0 0 0 - - 0.0
24/08:00pm 4.5 2.8 3.9 96 0.3 - 2 6 1 3 - - 0.0
24/07:30pm 4.0 2.6 3.3 95 0.3 CALM 0 0 0 0 - - 0.0
24/07:00pm 4.5 3.1 3.5 93 0.4 CALM 0 0 0 0 - - 0.0
24/06:30pm 5.5 4.1 3.7 88 0.8 CALM 0 0 0 0 - - 0.0
24/06:00pm 7.5 5.5 4.6 82 1.3 - 4 7 2 4 - - 0.0
24/05:30pm 9.6 7.4 5.2 74 2.0 - 6 9 3 5 - - 0.0
24/05:00pm 12.3 11.2 5.2 62 3.3 CALM 0 0 0 0 - - 0.0
24/04:30pm 13.3 12.2 5.0 57 3.9 CALM 0 0 0 0 - - 0.0
24/04:00pm 14.5 12.5 6.3 58 4.0 - 6 9 3 5 - - 0.0
24/03:30pm 13.2 10.8 5.4 59 3.7 - 7 11 4 6 - - 0.0
24/03:00pm 13.6 10.9 5.5 58 3.8 - 9 13 5 7 - - 0.0
24/02:30pm 13.9 11.1 5.3 56 4.1 - 9 15 5 8 - - 0.0
24/02:00pm 14.7 13.1 4.7 51 4.7 - 2 9 1 5 - - 0.0
24/01:30pm 14.1 11.7 5.2 55 4.2 - 7 11 4 6 - - 0.0
24/01:00pm 13.0 10.6 5.2 59 3.6 - 7 13 4 7 - - 0.0
24/12:30pm 13.0 10.2 5.2 59 3.6 - 9 13 5 7 - - 0.0
24/12:00pm 12.6 10.6 7.1 69 2.7 - 7 11 4 6 - - 0.0
24/11:30am 10.9 8.7 6.1 72 2.2 - 7 13 4 7 - - 0.0
24/11:00am 10.9 8.7 6.3 73 2.2 - 7 11 4 6 - - 0.0
24/10:30am 9.2 7.8 5.6 78 1.6 - 2 7 1 4 - - 0.0
24/10:00am 7.2 5.3 5.0 86 1.0 - 4 9 2 5 - - 0.0
24/09:30am 5.2 2.7 4.6 96 0.3 - 7 11 4 6 - - 0.0
24/09:00am 3.0 1.5 2.9 99 0.0 CALM 0 0 0 0 - - 0.0
24/08:30am 0.3 -2.8 0.2 99 0.0 - 6 7 3 4 - - 0.0
24/08:00am -0.3 -2.7 -0.4 99 0.0 - 2 9 1 5 - - 0.0
24/07:30am -1.1 -3.3 -1.2 99 0.0 CALM 0 0 0 0 - - 0.0
24/07:00am -1.1 -3.3 -1.4 98 0.1 CALM 0 0 0 0 - - 0.0
24/06:30am 0.0 -3.3 -0.1 99 0.0 - 7 9 4 5 - - 0.0
24/06:00am 0.0 -3.2 -0.3 98 0.1 - 6 7 3 4 - - 0.0
24/05:30am 0.4 -2.9 0.1 98 0.1 - 7 9 4 5 - - 0.0
24/05:00am 0.9 -2.3 0.6 98 0.1 - 7 11 4 6 - - 0.0
24/04:30am 0.6 -2.7 0.3 98 0.1 - 7 9 4 5 - - 0.0
24/04:00am 1.2 -2.0 0.9 98 0.1 - 7 9 4 5 - - 0.0
24/03:30am 1.2 -2.0 0.8 97 0.1 - 7 9 4 5 - - 0.0
24/03:00am 2.4 -0.4 2.0 97 0.2 - 6 7 3 4 - - 0.0
24/02:30am 3.1 0.2 2.7 97 0.2 - 7 9 4 5 - - 0.0
24/02:00am 3.2 -0.4 2.8 97 0.2 - 11 11 6 6 - - 0.0
24/01:30am 3.3 -0.3 2.9 97 0.2 - 11 11 6 6 - - 0.0
24/01:00am 3.6 0.4 3.0 96 0.2 - 9 11 5 6 - - 0.0
24/12:30am 4.2 1.5 3.6 96 0.2 - 7 9 4 5 - - 0.0
24/12:00am 4.3 1.6 3.6 95 0.3 - 7 9 4 5 - - 0.0
 
Date/Time
EST
Temp
°C
App
Temp
°C
Dew
Point
Rel
Hum
%
Delta-T
°C
Wind Press
QNH
hPa
Press
MSL
hPa
Rain
since 9 am
mm
Dir
 
Spd
km/h
Gust
km/h
Spd
kts
Gust
kts
23/11:30pm 4.7 1.7 4.0 95 0.3 - 9 11 5 6 - - 0.0
23/11:00pm 4.7 1.7 4.0 95 0.3 - 9 11 5 6 - - 0.0
23/10:30pm 4.9 2.2 3.9 93 0.4 - 7 9 4 5 - - 0.0
23/10:00pm 5.8 2.9 4.4 91 0.6 - 9 11 5 6 - - 0.0
23/09:30pm 6.6 3.7 4.8 88 0.8 - 9 13 5 7 - - 0.0
23/09:00pm 7.2 4.4 5.0 86 1.0 - 9 13 5 7 - - 0.0
23/08:30pm 6.8 4.3 4.6 86 1.0 - 7 11 4 6 - - 0.0
23/08:00pm 8.3 5.5 5.2 81 1.4 - 9 13 5 7 - - 0.0
23/07:30pm 7.5 4.4 5.5 87 0.9 - 11 13 6 7 - - 0.0
23/07:00pm 5.1 3.0 3.8 91 0.5 - 4 7 2 4 - - 0.0
23/06:30pm 5.7 2.9 3.4 85 1.0 - 7 9 4 5 - - 0.0
23/06:00pm 7.7 6.4 4.3 79 1.5 CALM 0 0 0 0 - - 0.0
23/05:30pm 9.5 8.3 4.5 71 2.2 CALM 0 0 0 0 - - 0.0
23/05:00pm 13.9 12.9 5.5 57 4.0 CALM 0 0 0 0 - - 0.0
23/04:30pm 15.0 13.8 4.4 49 4.9 CALM 0 6 0 3 - - 0.0
23/04:00pm 15.1 12.0 3.6 46 5.3 - 9 13 5 7 - - 0.0
23/03:30pm 15.6 13.1 4.0 46 5.4 - 6 11 3 6 - - 0.0
23/03:00pm 15.4 13.9 4.8 49 5.0 - 2 9 1 5 - - 0.0
23/02:30pm 15.3 13.3 6.1 54 4.5 - 6 9 3 5 - - 0.0
23/02:00pm 15.0 12.3 5.5 53 4.5 - 9 17 5 9 - - 0.0
23/01:30pm 14.3 11.4 4.6 52 4.5 - 9 13 5 7 - - 0.0
23/01:00pm 14.1 11.4 5.5 56 4.1 - 9 15 5 8 - - 0.0
23/12:30pm 13.4 10.5 4.8 56 4.0 - 9 15 5 8 - - 0.0
23/12:00pm 12.7 10.0 3.9 55 4.0 - 7 11 4 6 - - 0.0

Other Formats:

Comma delimited format used in spreadsheet applications
http://www.bom.gov.au/fwo/IDV60801/IDV60801.95836.axf

JavaScript Object Notation format (JSON) in row-major order
http://www.bom.gov.au/fwo/IDV60801/IDV60801.95836.json